Terminal Aerodrome Forecast
Issued by NWS Cleveland, OH

Home | Current Version | Previous Version | Graphics & Text | Print | Product List | Glossary On
Versions: 1 2 3 4 5 6 7 8 9 10 11 12 13 14 15 16
581
FTUS41 KCLE 202323
TAFYNG
TAF
KYNG 202323Z 2100/2124 VRB03KT P6SM SCT040 BKN120
     FM210200 VRB02KT P6SM SCT250
     FM210800 00000KT 6SM BR SCT250
      TEMPO 2109/2110 4SM BR BKN015
     FM211000 00000KT 3SM BR SCT200
      TEMPO 2110/2113 1SM BR BKN015
     FM211300 00000KT 5SM BR SCT250
     FM211500 00000KT P6SM SCT250=

USA.gov is the U.S. government's official web portal to all federal, state and local government web resources and services.